createdAt,value
2016-09-18T00:00:32.954Z,1010.18
2016-09-18T00:01:32.949Z,1010.15
2016-09-18T00:02:32.935Z,1010.16
2016-09-18T00:03:32.919Z,1010.15
2016-09-18T00:04:32.900Z,1010.12
2016-09-18T00:05:32.955Z,1010.14
2016-09-18T00:06:32.872Z,1010.15
2016-09-18T00:07:32.856Z,1010.13
2016-09-18T00:08:32.849Z,1010.14
2016-09-18T00:09:32.837Z,1010.15
2016-09-18T00:10:32.817Z,1010.17
2016-09-18T00:11:32.807Z,1010.15
2016-09-18T00:12:32.795Z,1010.2
2016-09-18T00:13:32.779Z,1010.16
2016-09-18T00:14:32.766Z,1010.19
2016-09-18T00:15:32.754Z,1010.18
2016-09-18T00:16:32.741Z,1010.2
2016-09-18T00:17:32.728Z,1010.19
2016-09-18T00:18:32.711Z,1010.16
2016-09-18T00:19:32.699Z,1010.16
2016-09-18T00:20:32.684Z,1010.16
2016-09-18T00:21:32.671Z,1010.15
2016-09-18T00:22:32.654Z,1010.16
2016-09-18T00:23:32.646Z,1010.14
2016-09-18T00:24:32.629Z,1010.16
2016-09-18T00:25:32.618Z,1010.18
2016-09-18T00:26:32.602Z,1010.15
2016-09-18T00:27:32.587Z,1010.17
2016-09-18T00:28:32.574Z,1010.17
2016-09-18T00:29:32.562Z,1010.15
2016-09-18T00:30:32.545Z,1010.17
2016-09-18T00:31:32.540Z,1010.18
2016-09-18T00:32:32.521Z,1010.19
2016-09-18T00:33:32.504Z,1010.2
2016-09-18T00:34:32.497Z,1010.23
2016-09-18T00:35:32.482Z,1010.21
2016-09-18T00:36:32.468Z,1010.19
2016-09-18T00:37:32.459Z,1010.17
2016-09-18T00:38:32.437Z,1010.17
2016-09-18T00:39:32.427Z,1010.16
2016-09-18T00:40:32.413Z,1010.14
2016-09-18T00:41:32.395Z,1010.17
2016-09-18T00:42:32.388Z,1010.21
2016-09-18T00:43:32.367Z,1010.22
2016-09-18T00:44:32.358Z,1010.22
2016-09-18T00:45:32.340Z,1010.22
2016-09-18T00:46:32.330Z,1010.24
2016-09-18T00:47:32.314Z,1010.24
2016-09-18T00:48:32.302Z,1010.23
2016-09-18T00:49:32.290Z,1010.22
2016-09-18T00:50:32.289Z,1010.24
2016-09-18T00:51:32.261Z,1010.24
2016-09-18T00:52:32.247Z,1010.24
2016-09-18T00:53:32.234Z,1010.25
2016-09-18T00:54:32.220Z,1010.2
2016-09-18T00:55:32.210Z,1010.16
2016-09-18T00:56:32.191Z,1010.16
2016-09-18T00:57:32.178Z,1010.14
2016-09-18T00:58:32.167Z,1010.14
2016-09-18T00:59:32.152Z,1010.11
2016-09-18T01:00:32.136Z,1010.09
2016-09-18T01:01:32.120Z,1010.08
2016-09-18T01:02:32.109Z,1010.07
2016-09-18T01:03:32.097Z,1010.09
2016-09-18T01:04:32.084Z,1010.09
2016-09-18T01:05:32.068Z,1010.11
2016-09-18T01:06:32.052Z,1010.09
2016-09-18T01:07:32.043Z,1010.11
2016-09-18T01:08:32.027Z,1010.1
2016-09-18T01:09:32.011Z,1010.09
2016-09-18T01:10:31.997Z,1010.1
2016-09-18T01:11:31.987Z,1010.1
2016-09-18T01:12:31.975Z,1010.15
2016-09-18T01:13:31.957Z,1010.14
2016-09-18T01:14:31.939Z,1010.14
2016-09-18T01:15:31.930Z,1010.13
2016-09-18T01:16:31.920Z,1010.11
2016-09-18T01:17:31.900Z,1010.08
2016-09-18T01:18:31.886Z,1010.09
2016-09-18T01:19:31.882Z,1010.08
2016-09-18T01:20:31.857Z,1010.08
2016-09-18T01:21:31.845Z,1010.09
2016-09-18T01:22:31.830Z,1010.06
2016-09-18T01:23:31.816Z,1010.1
2016-09-18T01:24:31.802Z,1010.1
2016-09-18T01:25:31.787Z,1010.08
2016-09-18T01:26:31.780Z,1010.09
2016-09-18T01:27:31.766Z,1010.13
2016-09-18T01:28:31.747Z,1010.12
2016-09-18T01:29:31.738Z,1010.17
2016-09-18T01:30:31.723Z,1010.14
2016-09-18T01:31:31.703Z,1010.15
2016-09-18T01:32:31.693Z,1010.18
2016-09-18T01:33:31.680Z,1010.18
2016-09-18T01:34:31.764Z,1010.21
2016-09-18T01:35:31.647Z,1010.18
2016-09-18T01:36:31.639Z,1010.21
2016-09-18T01:37:31.623Z,1010.18
2016-09-18T01:38:31.652Z,1010.18
2016-09-18T01:39:31.597Z,1010.22
2016-09-18T01:40:31.582Z,1010.23
2016-09-18T01:41:31.568Z,1010.22
2016-09-18T01:42:31.553Z,1010.2
2016-09-18T01:43:31.539Z,1010.21
2016-09-18T01:44:31.530Z,1010.16
2016-09-18T01:45:31.517Z,1010.18
2016-09-18T01:46:31.545Z,1010.15
2016-09-18T01:47:31.485Z,1010.14
2016-09-18T01:48:31.476Z,1010.14
2016-09-18T01:49:31.458Z,1010.17
2016-09-18T01:50:31.442Z,1010.16
2016-09-18T01:51:31.427Z,1010.11
2016-09-18T01:52:31.469Z,1010.13
2016-09-18T01:53:31.406Z,1010.11
2016-09-18T01:54:31.386Z,1010.12
2016-09-18T01:55:31.375Z,1010.14
2016-09-18T01:56:31.360Z,1010.16
2016-09-18T01:57:31.347Z,1010.13
2016-09-18T01:58:31.331Z,1010.17
2016-09-18T01:59:31.315Z,1010.15
2016-09-18T02:00:31.305Z,1010.14
2016-09-18T02:01:31.286Z,1010.15
2016-09-18T02:02:31.287Z,1010.17
2016-09-18T02:03:31.270Z,1010.19
2016-09-18T02:04:31.250Z,1010.17
2016-09-18T02:05:31.233Z,1010.19
2016-09-18T02:06:31.222Z,1010.13
2016-09-18T02:07:31.203Z,1010.18
2016-09-18T02:08:31.197Z,1010.16
2016-09-18T02:09:31.175Z,1010.15
2016-09-18T02:10:31.174Z,1010.17
2016-09-18T02:11:31.150Z,1010.18
2016-09-18T02:12:31.136Z,1010.17
2016-09-18T02:13:31.126Z,1010.17
2016-09-18T02:14:31.108Z,1010.18
2016-09-18T02:15:31.098Z,1010.19
2016-09-18T02:16:31.089Z,1010.21
2016-09-18T02:17:31.068Z,1010.19
2016-09-18T02:18:31.059Z,1010.19
2016-09-18T02:19:31.046Z,1010.16
2016-09-18T02:20:31.028Z,1010.14
2016-09-18T02:21:31.014Z,1010.14
2016-09-18T02:22:30.998Z,1010.11
2016-09-18T02:23:30.987Z,1010.1
2016-09-18T02:24:30.976Z,1010.07
2016-09-18T02:25:30.959Z,1010.09
2016-09-18T02:26:30.944Z,1010.12
2016-09-18T02:27:30.943Z,1010.12
2016-09-18T02:28:30.919Z,1010.1
2016-09-18T02:29:30.906Z,1010.12
2016-09-18T02:30:30.890Z,1010.13
2016-09-18T02:31:30.876Z,1010.1
2016-09-18T02:32:30.862Z,1010.11
2016-09-18T02:33:30.847Z,1010.1
2016-09-18T02:34:30.838Z,1010.1
2016-09-18T02:35:30.817Z,1010.11
2016-09-18T02:36:30.810Z,1010.1
2016-09-18T02:37:30.800Z,1010.1
2016-09-18T02:38:30.776Z,1010.09
2016-09-18T02:39:30.763Z,1010.11
2016-09-18T02:40:30.752Z,1010.15
2016-09-18T02:41:30.737Z,1010.14
2016-09-18T02:42:30.729Z,1010.11
2016-09-18T02:43:30.711Z,1010.11
2016-09-18T02:44:30.699Z,1010.12
2016-09-18T02:45:30.684Z,1010.09
2016-09-18T02:46:30.670Z,1010.07
2016-09-18T02:47:30.659Z,1010.06
2016-09-18T02:48:30.641Z,1010.07
2016-09-18T02:49:30.627Z,1010.08
2016-09-18T02:50:30.620Z,1010.03
2016-09-18T02:51:30.608Z,1010.03
2016-09-18T02:52:30.586Z,1010.05
2016-09-18T02:53:30.574Z,1009.98
2016-09-18T02:54:30.561Z,1009.99
2016-09-18T02:55:30.547Z,1010
2016-09-18T02:56:30.539Z,1009.98
2016-09-18T02:57:30.519Z,1010.01
2016-09-18T02:58:30.508Z,1010.02
2016-09-18T02:59:30.489Z,1010.02
2016-09-18T03:00:30.480Z,1010.02
2016-09-18T03:01:30.468Z,1010
2016-09-18T03:02:30.446Z,1010.01
2016-09-18T03:03:30.431Z,1010.02
2016-09-18T03:04:30.420Z,1010.02
2016-09-18T03:05:30.407Z,1009.98
2016-09-18T03:06:30.395Z,1009.99
2016-09-18T03:07:30.381Z,1010
2016-09-18T03:08:30.366Z,1010.01
2016-09-18T03:09:30.356Z,1009.99
2016-09-18T03:10:30.337Z,1010.01
2016-09-18T03:11:30.329Z,1010.01
2016-09-18T03:12:30.308Z,1009.98
2016-09-18T03:13:30.294Z,1009.97
2016-09-18T03:14:30.291Z,1009.98
2016-09-18T03:15:30.276Z,1009.97
2016-09-18T03:16:30.258Z,1009.99
2016-09-18T03:17:30.249Z,1009.94
2016-09-18T03:18:30.234Z,1009.95
2016-09-18T03:19:30.218Z,1009.98
2016-09-18T03:20:30.203Z,1009.98
2016-09-18T03:21:30.199Z,1009.97
2016-09-18T03:22:30.170Z,1009.95
2016-09-18T03:23:30.160Z,1009.93
2016-09-18T03:24:30.145Z,1009.93
2016-09-18T03:25:30.136Z,1009.93
2016-09-18T03:26:30.118Z,1009.91
2016-09-18T03:27:30.109Z,1009.89
2016-09-18T03:28:30.090Z,1009.9
2016-09-18T03:29:30.078Z,1009.85
2016-09-18T03:30:30.068Z,1009.83
2016-09-18T03:31:30.045Z,1009.8
2016-09-18T03:32:30.035Z,1009.82
2016-09-18T03:33:30.026Z,1009.82
2016-09-18T03:34:30.012Z,1009.79
2016-09-18T03:35:29.996Z,1009.79
2016-09-18T03:36:29.978Z,1009.81
2016-09-18T03:37:29.967Z,1009.81
2016-09-18T03:38:29.957Z,1009.79
2016-09-18T03:39:29.939Z,1009.82
2016-09-18T03:40:29.928Z,1009.82
2016-09-18T03:41:29.912Z,1009.82
2016-09-18T03:42:29.895Z,1009.82
2016-09-18T03:43:29.885Z,1009.82
2016-09-18T03:44:29.878Z,1009.79
2016-09-18T03:45:29.858Z,1009.81
2016-09-18T03:46:29.863Z,1009.81
2016-09-18T03:47:29.825Z,1009.79
2016-09-18T03:48:29.815Z,1009.75
2016-09-18T03:49:29.802Z,1009.77
2016-09-18T03:50:29.785Z,1009.78
2016-09-18T03:51:29.772Z,1009.85
2016-09-18T03:52:29.754Z,1009.86
2016-09-18T03:53:29.743Z,1009.86
2016-09-18T03:54:29.736Z,1009.84
2016-09-18T03:55:29.764Z,1009.83
2016-09-18T03:56:29.705Z,1009.88
2016-09-18T03:57:29.691Z,1009.88
2016-09-18T03:58:29.675Z,1009.87
2016-09-18T03:59:29.665Z,1009.89
2016-09-18T04:00:29.648Z,1009.9
2016-09-18T04:01:29.638Z,1009.9
2016-09-18T04:02:29.616Z,1009.88
2016-09-18T04:03:29.608Z,1009.9
2016-09-18T04:04:29.595Z,1009.87
2016-09-18T04:05:29.574Z,1009.88
2016-09-18T04:06:29.568Z,1009.9
2016-09-18T04:07:29.557Z,1009.86
2016-09-18T04:08:29.538Z,1009.86
2016-09-18T04:09:29.528Z,1009.86
2016-09-18T04:10:29.514Z,1009.9
2016-09-18T04:11:29.494Z,1009.85
2016-09-18T04:12:29.481Z,1009.87
2016-09-18T04:13:29.464Z,1009.86
2016-09-18T04:14:29.458Z,1009.84
2016-09-18T04:15:29.453Z,1009.79
2016-09-18T04:16:29.426Z,1009.82
2016-09-18T04:17:29.414Z,1009.82
2016-09-18T04:18:29.407Z,1009.8
2016-09-18T04:19:29.385Z,1009.77
2016-09-18T04:20:29.378Z,1009.76
2016-09-18T04:21:29.357Z,1009.78
2016-09-18T04:22:29.430Z,1009.75
2016-09-18T04:23:29.337Z,1009.78
2016-09-18T04:24:29.322Z,1009.79
2016-09-18T04:25:29.305Z,1009.79
2016-09-18T04:26:29.290Z,1009.83
2016-09-18T04:27:29.281Z,1009.8
2016-09-18T04:28:29.258Z,1009.79
2016-09-18T04:29:29.245Z,1009.82
2016-09-18T04:30:29.289Z,1009.8
2016-09-18T04:31:29.219Z,1009.8
2016-09-18T04:32:29.255Z,1009.78
2016-09-18T04:33:29.200Z,1009.76
2016-09-18T04:34:29.277Z,1009.74
2016-09-18T04:35:29.168Z,1009.71
2016-09-18T04:36:29.158Z,1009.76
2016-09-18T04:37:29.134Z,1009.73
2016-09-18T04:38:29.175Z,1009.76
2016-09-18T04:39:29.107Z,1009.76
2016-09-18T04:40:29.104Z,1009.77
2016-09-18T04:41:29.084Z,1009.8
2016-09-18T04:42:29.076Z,1009.79
2016-09-18T04:43:29.051Z,1009.79
2016-09-18T04:44:29.034Z,1009.81
2016-09-18T04:45:29.023Z,1009.83
2016-09-18T04:46:29.009Z,1009.82
2016-09-18T04:47:28.998Z,1009.77
2016-09-18T04:48:28.984Z,1009.8
2016-09-18T04:49:28.969Z,1009.81
2016-09-18T04:50:28.955Z,1009.8
2016-09-18T04:51:28.948Z,1009.84
2016-09-18T04:52:28.936Z,1009.84
2016-09-18T04:53:28.918Z,1009.9
2016-09-18T04:54:28.902Z,1009.92
2016-09-18T04:55:28.886Z,1009.87
2016-09-18T04:56:28.875Z,1009.9
2016-09-18T04:57:28.855Z,1009.92
2016-09-18T04:58:28.848Z,1009.93
2016-09-18T04:59:28.831Z,1009.95
2016-09-18T05:00:28.815Z,1009.93
2016-09-18T05:01:28.803Z,1009.96
2016-09-18T05:02:28.787Z,1009.96
2016-09-18T05:03:28.780Z,1009.96
2016-09-18T05:04:28.761Z,1009.94
2016-09-18T05:05:28.755Z,1009.93
2016-09-18T05:06:28.735Z,1009.95
2016-09-18T05:07:28.717Z,1009.95
2016-09-18T05:08:28.704Z,1009.94
2016-09-18T05:09:28.691Z,1009.96
2016-09-18T05:10:28.679Z,1009.97
2016-09-18T05:11:28.667Z,1009.95
2016-09-18T05:12:28.646Z,1009.95
2016-09-18T05:13:28.636Z,1009.94
2016-09-18T05:14:28.615Z,1009.93
2016-09-18T05:15:28.604Z,1009.9
2016-09-18T05:16:28.595Z,1009.93
2016-09-18T05:17:28.580Z,1009.94
2016-09-18T05:18:28.570Z,1009.93
2016-09-18T05:19:28.548Z,1009.96
2016-09-18T05:20:28.535Z,1009.99
2016-09-18T05:21:28.518Z,1010.02
2016-09-18T05:22:28.508Z,1010.02
2016-09-18T05:23:28.499Z,1010.03
2016-09-18T05:24:28.477Z,1010.02
2016-09-18T05:25:28.467Z,1010.06
2016-09-18T05:26:28.456Z,1010.03
2016-09-18T05:27:28.436Z,1010
2016-09-18T05:28:28.428Z,1010.05
2016-09-18T05:29:28.406Z,1010.04
2016-09-18T05:30:28.394Z,1010.05
2016-09-18T05:31:28.390Z,1010.04
2016-09-18T05:32:28.366Z,1010.04
2016-09-18T05:33:28.348Z,1010.04
2016-09-18T05:34:28.348Z,1010.02
2016-09-18T05:35:28.335Z,1010.06
2016-09-18T05:36:28.314Z,1010.03
2016-09-18T05:37:28.299Z,1010.03
2016-09-18T05:38:28.285Z,1010.05
2016-09-18T05:39:28.267Z,1010.03
2016-09-18T05:40:28.259Z,1010.06
2016-09-18T05:41:28.247Z,1010.03
2016-09-18T05:42:28.238Z,1010.09
2016-09-18T05:43:28.219Z,1010.05
2016-09-18T05:44:28.198Z,1010.06
2016-09-18T05:45:28.185Z,1010.07
2016-09-18T05:46:28.167Z,1010.03
2016-09-18T05:47:28.160Z,1010.05
2016-09-18T05:48:28.149Z,1010.11
2016-09-18T05:49:28.129Z,1010.06
2016-09-18T05:50:28.115Z,1010.09
2016-09-18T05:51:28.099Z,1010.11
2016-09-18T05:52:28.086Z,1010.11
2016-09-18T05:53:28.070Z,1010.08
2016-09-18T05:54:28.067Z,1010.12
2016-09-18T05:55:28.048Z,1010.07
2016-09-18T05:56:28.026Z,1010.07
2016-09-18T05:57:28.013Z,1010.09
2016-09-18T05:58:27.995Z,1010.12
2016-09-18T05:59:27.984Z,1010.1
2016-09-18T06:00:27.969Z,1010.13
2016-09-18T06:01:27.951Z,1010.1
2016-09-18T06:02:27.943Z,1010.07
2016-09-18T06:03:27.927Z,1010.09
2016-09-18T06:04:27.920Z,1010.08
2016-09-18T06:05:27.898Z,1010.07
2016-09-18T06:06:27.884Z,1010.05
2016-09-18T06:07:27.918Z,1010.05
2016-09-18T06:08:27.864Z,1010.04
2016-09-18T06:09:27.850Z,1010.02
2016-09-18T06:10:27.839Z,1010.04
2016-09-18T06:11:27.811Z,1010.07
2016-09-18T06:12:27.798Z,1010.06
2016-09-18T06:13:27.788Z,1010.02
2016-09-18T06:14:27.766Z,1010.04
2016-09-18T06:15:27.752Z,1010.04
2016-09-18T06:16:27.741Z,1010.04
2016-09-18T06:17:27.727Z,1010.06
2016-09-18T06:18:27.710Z,1010.06
2016-09-18T06:19:27.693Z,1010.02
2016-09-18T06:20:27.676Z,1010.07
2016-09-18T06:21:27.661Z,1010.05
2016-09-18T06:22:27.649Z,1010.06
2016-09-18T06:23:27.635Z,1010.12
2016-09-18T06:24:27.629Z,1010.08
2016-09-18T06:25:27.653Z,1010.07
2016-09-18T06:26:27.591Z,1010.08
2016-09-18T06:27:27.579Z,1010.09
2016-09-18T06:28:27.562Z,1010.05
2016-09-18T06:29:27.543Z,1010.02
2016-09-18T06:30:27.530Z,1010.06
2016-09-18T06:31:27.516Z,1010.09
2016-09-18T06:32:27.504Z,1010.04
2016-09-18T06:33:27.487Z,1010.07
2016-09-18T06:34:27.476Z,1010.11
2016-09-18T06:35:27.460Z,1010.09
2016-09-18T06:36:27.445Z,1010.13
2016-09-18T06:37:27.427Z,1010.12
2016-09-18T06:38:27.419Z,1010.16
2016-09-18T06:39:27.396Z,1010.13
2016-09-18T06:40:27.394Z,1010.17
2016-09-18T06:41:27.367Z,1010.18
2016-09-18T06:42:27.355Z,1010.2
2016-09-18T06:43:27.340Z,1010.14
2016-09-18T06:44:27.323Z,1010.14
2016-09-18T06:45:27.312Z,1010.17
2016-09-18T06:46:27.292Z,1010.19
2016-09-18T06:47:27.280Z,1010.17
2016-09-18T06:48:27.268Z,1010.21
2016-09-18T06:49:27.259Z,1010.21
2016-09-18T06:50:27.236Z,1010.13
2016-09-18T06:51:27.225Z,1010.16
2016-09-18T06:52:27.210Z,1010.19
2016-09-18T06:53:27.190Z,1010.15
2016-09-18T06:54:27.185Z,1010.19
2016-09-18T06:55:27.166Z,1010.2
2016-09-18T06:56:27.150Z,1010.2
2016-09-18T06:57:27.138Z,1010.24
2016-09-18T06:58:27.120Z,1010.24
2016-09-18T06:59:27.106Z,1010.25
2016-09-18T07:00:27.088Z,1010.25
2016-09-18T07:01:27.077Z,1010.24
2016-09-18T07:02:27.065Z,1010.24
2016-09-18T07:03:27.050Z,1010.27
2016-09-18T07:04:27.041Z,1010.23
2016-09-18T07:05:27.017Z,1010.27
2016-09-18T07:06:27.010Z,1010.24
2016-09-18T07:07:26.991Z,1010.22
2016-09-18T07:08:26.977Z,1010.22
2016-09-18T07:09:26.956Z,1010.22
2016-09-18T07:10:26.947Z,1010.23
2016-09-18T07:11:26.931Z,1010.19
2016-09-18T07:12:26.916Z,1010.19
2016-09-18T07:13:26.904Z,1010.15
2016-09-18T07:14:26.887Z,1010.17
2016-09-18T07:15:26.873Z,1010.14
2016-09-18T07:16:26.867Z,1010.14
2016-09-18T07:17:26.850Z,1010.13
2016-09-18T07:18:26.826Z,1010.1
2016-09-18T07:19:26.810Z,1010.1
2016-09-18T07:20:26.800Z,1010.1
2016-09-18T07:21:26.783Z,1010.13
2016-09-18T07:22:26.768Z,1010.12
2016-09-18T07:23:26.758Z,1010.16
2016-09-18T07:24:26.748Z,1010.12
2016-09-18T07:25:26.722Z,1010.15
2016-09-18T07:26:26.710Z,1010.2
2016-09-18T07:27:26.697Z,1010.17
2016-09-18T07:28:26.681Z,1010.17
2016-09-18T07:29:26.673Z,1010.18
2016-09-18T07:30:26.649Z,1010.18
2016-09-18T07:31:26.639Z,1010.1
2016-09-18T07:32:26.622Z,1010.09
2016-09-18T07:33:26.610Z,1010.08
2016-09-18T07:34:26.595Z,1010.11
2016-09-18T07:35:26.578Z,1010.12
2016-09-18T07:36:26.566Z,1010.15
2016-09-18T07:37:26.554Z,1010.15
2016-09-18T07:38:26.538Z,1010.2
2016-09-18T07:39:26.527Z,1010.21
2016-09-18T07:40:26.510Z,1010.2
2016-09-18T07:41:26.491Z,1010.21
2016-09-18T07:42:26.477Z,1010.19
2016-09-18T07:43:26.459Z,1010.19
2016-09-18T07:44:26.447Z,1010.17
2016-09-18T07:45:26.432Z,1010.16
2016-09-18T07:46:26.423Z,1010.19
2016-09-18T07:47:26.407Z,1010.19
2016-09-18T07:48:26.396Z,1010.18
2016-09-18T07:49:26.377Z,1010.15
2016-09-18T07:50:26.371Z,1010.13
2016-09-18T07:51:26.346Z,1010.15
2016-09-18T07:52:26.333Z,1010.13
2016-09-18T07:53:26.317Z,1010.09
2016-09-18T07:54:26.307Z,1010.16
2016-09-18T07:55:26.287Z,1010.17
2016-09-18T07:56:26.301Z,1010.16
2016-09-18T07:57:26.266Z,1010.17
2016-09-18T07:58:26.250Z,1010.22
2016-09-18T07:59:26.243Z,1010.2
2016-09-18T08:00:26.220Z,1010.2
2016-09-18T08:01:26.211Z,1010.2
2016-09-18T08:02:26.190Z,1010.26
2016-09-18T08:03:26.181Z,1010.23
2016-09-18T08:04:26.159Z,1010.22
2016-09-18T08:05:26.147Z,1010.24
2016-09-18T08:06:26.137Z,1010.22
2016-09-18T08:07:26.118Z,1010.21
2016-09-18T08:08:26.106Z,1010.19
2016-09-18T08:09:26.098Z,1010.2
2016-09-18T08:10:26.066Z,1010.22
2016-09-18T08:11:26.054Z,1010.19
2016-09-18T08:12:26.048Z,1010.24
2016-09-18T08:13:26.026Z,1010.25
2016-09-18T08:14:26.014Z,1010.23
2016-09-18T08:15:25.997Z,1010.32
2016-09-18T08:16:25.987Z,1010.29
2016-09-18T08:17:25.977Z,1010.36
2016-09-18T08:18:25.955Z,1010.32
2016-09-18T08:19:25.977Z,1010.33
2016-09-18T08:20:25.927Z,1010.29
2016-09-18T08:21:25.909Z,1010.34
2016-09-18T08:22:25.897Z,1010.35
2016-09-18T08:23:25.885Z,1010.32
2016-09-18T08:24:25.869Z,1010.28
2016-09-18T08:25:25.857Z,1010.29
2016-09-18T08:26:25.849Z,1010.35
2016-09-18T08:27:25.827Z,1010.28
2016-09-18T08:28:25.811Z,1010.25
2016-09-18T08:29:25.797Z,1010.32
2016-09-18T08:30:25.783Z,1010.28
2016-09-18T08:31:25.767Z,1010.31
2016-09-18T08:32:25.759Z,1010.33
2016-09-18T08:33:25.742Z,1010.45
2016-09-18T08:34:25.727Z,1010.47
2016-09-18T08:35:25.715Z,1010.38
2016-09-18T08:36:25.706Z,1010.34
2016-09-18T08:37:25.697Z,1010.37
2016-09-18T08:38:25.676Z,1010.48
2016-09-18T08:39:25.668Z,1010.46
2016-09-18T08:40:25.659Z,1010.42
2016-09-18T08:41:25.646Z,1010.46
2016-09-18T08:42:25.639Z,1010.46
2016-09-18T08:43:25.629Z,1010.48
2016-09-18T08:44:25.619Z,1010.44
2016-09-18T08:45:25.604Z,1010.49
2016-09-18T08:46:25.596Z,1010.49
2016-09-18T08:47:25.583Z,1010.47
2016-09-18T08:48:25.580Z,1010.47
2016-09-18T08:49:25.565Z,1010.5
2016-09-18T08:50:25.558Z,1010.48
2016-09-18T08:51:25.545Z,1010.5
2016-09-18T08:52:25.539Z,1010.51
2016-09-18T08:53:25.522Z,1010.48
2016-09-18T08:54:25.515Z,1010.52
2016-09-18T08:55:25.506Z,1010.5
2016-09-18T08:56:25.493Z,1010.53
2016-09-18T08:57:25.589Z,1010.62
2016-09-18T08:58:25.475Z,1010.6
2016-09-18T08:59:25.563Z,1010.51
2016-09-18T09:00:25.451Z,1010.56
2016-09-18T09:01:25.529Z,1010.53
2016-09-18T09:02:25.436Z,1010.69
2016-09-18T09:03:25.428Z,1010.53
2016-09-18T09:04:25.414Z,1010.58
2016-09-18T09:05:25.425Z,1010.65
2016-09-18T09:06:25.396Z,1010.67
2016-09-18T09:07:25.429Z,1010.56
2016-09-18T09:08:25.381Z,1010.62
2016-09-18T09:09:25.377Z,1010.57
2016-09-18T09:10:25.366Z,1010.55
2016-09-18T09:11:25.404Z,1010.57
2016-09-18T09:12:25.340Z,1010.58
2016-09-18T09:13:25.394Z,1010.52
2016-09-18T09:14:25.327Z,1010.53
2016-09-18T09:15:25.320Z,1010.53
2016-09-18T09:16:25.305Z,1010.57
2016-09-18T09:17:25.301Z,1010.52
2016-09-18T09:18:25.296Z,1010.52
2016-09-18T09:19:25.281Z,1010.5
2016-09-18T09:20:25.269Z,1010.54
2016-09-18T09:21:25.261Z,1010.53
2016-09-18T09:22:25.247Z,1010.55
2016-09-18T09:23:25.242Z,1010.63
2016-09-18T09:24:25.237Z,1010.6
2016-09-18T09:25:25.226Z,1010.54
2016-09-18T09:26:25.221Z,1010.47
2016-09-18T09:27:25.216Z,1010.5
2016-09-18T09:28:25.208Z,1010.5
2016-09-18T09:29:25.198Z,1010.5
2016-09-18T09:30:25.185Z,1010.53
2016-09-18T09:31:25.180Z,1010.56
2016-09-18T09:32:25.180Z,1010.54
2016-09-18T09:33:25.166Z,1010.53
2016-09-18T09:34:25.149Z,1010.51
2016-09-18T09:35:25.145Z,1010.55
2016-09-18T09:36:25.138Z,1010.51
2016-09-18T09:37:25.125Z,1010.49
2016-09-18T09:38:25.118Z,1010.45
2016-09-18T09:39:25.109Z,1010.44
2016-09-18T09:40:25.096Z,1010.43
2016-09-18T09:41:25.085Z,1010.43
2016-09-18T09:42:25.082Z,1010.47
2016-09-18T09:43:25.074Z,1010.41
2016-09-18T09:44:25.065Z,1010.38
2016-09-18T09:45:25.056Z,1010.38
2016-09-18T09:46:25.041Z,1010.4
2016-09-18T09:47:25.037Z,1010.39
2016-09-18T09:48:25.025Z,1010.41
2016-09-18T09:49:25.005Z,1010.4
2016-09-18T09:50:25.006Z,1010.38
2016-09-18T09:51:24.994Z,1010.36
2016-09-18T09:52:24.984Z,1010.37
2016-09-18T09:53:24.966Z,1010.38
2016-09-18T09:54:24.961Z,1010.41
2016-09-18T09:55:24.949Z,1010.38
2016-09-18T09:56:24.938Z,1010.37
2016-09-18T09:57:24.925Z,1010.4
2016-09-18T09:58:24.916Z,1010.42
2016-09-18T09:59:24.921Z,1010.4
2016-09-18T10:00:24.899Z,1010.44
2016-09-18T10:01:24.885Z,1010.45
2016-09-18T10:02:24.873Z,1010.4
2016-09-18T10:03:24.867Z,1010.41
2016-09-18T10:04:24.867Z,1010.46
2016-09-18T10:05:24.847Z,1010.38
2016-09-18T10:06:24.847Z,1010.38
2016-09-18T10:07:24.830Z,1010.38
2016-09-18T10:08:24.826Z,1010.38
2016-09-18T10:09:24.812Z,1010.41
2016-09-18T10:10:24.809Z,1010.43
2016-09-18T10:11:24.798Z,1010.38
2016-09-18T10:12:24.785Z,1010.41
2016-09-18T10:13:24.787Z,1010.37
2016-09-18T10:14:24.776Z,1010.41
2016-09-18T10:15:24.762Z,1010.38
2016-09-18T10:16:24.755Z,1010.39
2016-09-18T10:17:24.745Z,1010.39
2016-09-18T10:18:24.738Z,1010.4
2016-09-18T10:19:24.737Z,1010.4
2016-09-18T10:20:24.724Z,1010.39
2016-09-18T10:21:24.717Z,1010.33
2016-09-18T10:22:24.723Z,1010.34
2016-09-18T10:23:24.706Z,1010.31
2016-09-18T10:24:24.696Z,1010.34
2016-09-18T10:25:24.686Z,1010.3
2016-09-18T10:26:24.681Z,1010.26
2016-09-18T10:27:24.675Z,1010.24
2016-09-18T10:28:24.668Z,1010.25
2016-09-18T10:29:24.663Z,1010.23
2016-09-18T10:30:24.656Z,1010.23
2016-09-18T10:31:24.639Z,1010.22
2016-09-18T10:32:24.635Z,1010.24
2016-09-18T10:33:24.625Z,1010.25
2016-09-18T10:34:24.617Z,1010.26
2016-09-18T10:35:24.611Z,1010.22
2016-09-18T10:36:24.602Z,1010.22
2016-09-18T10:37:24.595Z,1010.27
2016-09-18T10:38:24.584Z,1010.27
2016-09-18T10:39:24.582Z,1010.23
2016-09-18T10:40:24.579Z,1010.24
2016-09-18T10:41:24.564Z,1010.24
2016-09-18T10:42:24.560Z,1010.27
2016-09-18T10:43:24.546Z,1010.25
2016-09-18T10:44:24.544Z,1010.25
2016-09-18T10:45:24.527Z,1010.26
2016-09-18T10:46:24.528Z,1010.26
2016-09-18T10:47:24.516Z,1010.24
2016-09-18T10:48:24.506Z,1010.27
2016-09-18T10:49:24.497Z,1010.27
2016-09-18T10:50:24.486Z,1010.26
2016-09-18T10:51:24.486Z,1010.27
2016-09-18T10:52:24.471Z,1010.27
2016-09-18T10:53:24.460Z,1010.19
2016-09-18T10:54:24.455Z,1010.29
2016-09-18T10:55:24.447Z,1010.27
2016-09-18T10:56:24.434Z,1010.24
2016-09-18T10:57:24.424Z,1010.31
2016-09-18T10:58:24.439Z,1010.21
2016-09-18T10:59:24.425Z,1010.18
2016-09-18T11:00:24.405Z,1010.2
2016-09-18T11:01:24.392Z,1010.24
2016-09-18T11:02:24.384Z,1010.21
2016-09-18T11:03:24.377Z,1010.22
2016-09-18T11:04:24.366Z,1010.17
2016-09-18T11:05:24.363Z,1010.16
2016-09-18T11:06:24.347Z,1010.23
2016-09-18T11:07:24.345Z,1010.23
2016-09-18T11:08:24.349Z,1010.22
2016-09-18T11:09:24.323Z,1010.24
2016-09-18T11:10:24.324Z,1010.23
2016-09-18T11:11:24.326Z,1010.22
2016-09-18T11:12:24.344Z,1010.23
2016-09-18T11:13:24.324Z,1010.23
2016-09-18T11:14:24.313Z,1010.22
2016-09-18T11:15:24.337Z,1010.18
2016-09-18T11:16:24.328Z,1010.21
2016-09-18T11:17:24.283Z,1010.23
2016-09-18T11:18:24.295Z,1010.2
2016-09-18T11:19:24.314Z,1010.21
2016-09-18T11:20:24.276Z,1010.2
2016-09-18T11:21:24.276Z,1010.2
2016-09-18T11:22:24.267Z,1010.14
2016-09-18T11:23:24.263Z,1010.18
2016-09-18T11:24:24.252Z,1010.18
2016-09-18T11:25:24.248Z,1010.17
2016-09-18T11:26:24.242Z,1010.17
2016-09-18T11:27:24.244Z,1010.13
2016-09-18T11:28:24.186Z,1010.19
2016-09-18T11:29:24.184Z,1010.12
2016-09-18T11:30:24.157Z,1010.18
2016-09-18T11:31:24.156Z,1010.16
2016-09-18T11:32:24.144Z,1010.15
2016-09-18T11:33:24.140Z,1010.21
2016-09-18T11:34:24.125Z,1010.15
2016-09-18T11:35:24.122Z,1010.13
2016-09-18T11:36:24.101Z,1010.12
2016-09-18T11:37:24.093Z,1010.1
2016-09-18T11:38:24.089Z,1010.08
2016-09-18T11:39:24.074Z,1010.07
2016-09-18T11:40:24.074Z,1010.05
2016-09-18T11:41:24.059Z,1010.08
2016-09-18T11:42:24.051Z,1010.07
2016-09-18T11:43:24.040Z,1010.09
2016-09-18T11:44:24.033Z,1010.11
2016-09-18T11:45:24.024Z,1010.11
2016-09-18T11:46:24.024Z,1010.17
2016-09-18T11:47:24.011Z,1010.14
2016-09-18T11:48:24.005Z,1010.13
2016-09-18T11:49:23.997Z,1010.13
2016-09-18T11:50:23.984Z,1010.13
2016-09-18T11:51:23.974Z,1010.14
2016-09-18T11:52:23.968Z,1010.09
2016-09-18T11:53:23.965Z,1010.11
2016-09-18T11:54:23.949Z,1010.09
2016-09-18T11:55:23.940Z,1010.12
2016-09-18T11:56:23.941Z,1010.07
2016-09-18T11:57:23.926Z,1010.01
2016-09-18T11:58:23.923Z,1009.98
2016-09-18T11:59:23.910Z,1010.02
2016-09-18T12:00:23.904Z,1010.04
2016-09-18T12:01:23.894Z,1009.99
2016-09-18T12:02:23.883Z,1009.98
2016-09-18T12:03:23.881Z,1009.98
2016-09-18T12:04:23.870Z,1009.95
2016-09-18T12:05:23.863Z,1009.95
2016-09-18T12:06:23.855Z,1009.92
2016-09-18T12:07:23.845Z,1009.9
2016-09-18T12:08:23.848Z,1009.95